sensor_id;sensor_type;location;lat;lon;timestamp;pressure;altitude;pressure_sealevel;temperature;humidity
38253;BME280;24785;52.372;20.672;2023-02-13T00:07:14;102355.66;;;3.30;100.00
38253;BME280;24785;52.372;20.672;2023-02-13T00:17:14;102364.75;;;3.36;100.00
38253;BME280;24785;52.372;20.672;2023-02-13T00:27:15;102341.00;;;3.42;100.00
38253;BME280;24785;52.372;20.672;2023-02-13T00:37:16;102341.63;;;3.44;100.00
38253;BME280;24785;52.372;20.672;2023-02-13T00:47:18;102352.78;;;3.40;100.00
38253;BME280;24785;52.372;20.672;2023-02-13T00:57:19;102344.56;;;3.50;100.00
38253;BME280;24785;52.372;20.672;2023-02-13T01:07:20;102345.84;;;3.54;100.00
38253;BME280;24785;52.372;20.672;2023-02-13T01:17:20;102351.50;;;3.51;100.00
38253;BME280;24785;52.372;20.672;2023-02-13T01:27:21;102351.78;;;3.56;100.00
38253;BME280;24785;52.372;20.672;2023-02-13T01:37:22;102340.75;;;3.67;100.00
38253;BME280;24785;52.372;20.672;2023-02-13T01:47:41;102345.41;;;3.65;100.00
38253;BME280;24785;52.372;20.672;2023-02-13T01:57:49;102339.09;;;3.66;100.00
38253;BME280;24785;52.372;20.672;2023-02-13T02:07:52;102345.88;;;3.68;100.00
38253;BME280;24785;52.372;20.672;2023-02-13T02:17:54;102347.50;;;3.69;100.00
38253;BME280;24785;52.372;20.672;2023-02-13T02:38:21;102353.69;;;3.85;100.00
38253;BME280;24785;52.372;20.672;2023-02-13T03:09:11;102359.53;;;3.80;100.00
38253;BME280;24785;52.372;20.672;2023-02-13T03:30:50;102376.91;;;3.97;100.00
38253;BME280;24785;52.372;20.672;2023-02-13T03:41:19;102380.94;;;3.93;100.00
38253;BME280;24785;52.372;20.672;2023-02-13T03:51:36;102374.53;;;4.02;100.00
38253;BME280;24785;52.372;20.672;2023-02-13T04:01:39;102370.06;;;4.03;100.00
38253;BME280;24785;52.372;20.672;2023-02-13T04:11:55;102363.66;;;3.97;100.00
38253;BME280;24785;52.372;20.672;2023-02-13T04:21:59;102357.72;;;3.95;100.00
38253;BME280;24785;52.372;20.672;2023-02-13T04:32:00;102352.84;;;3.99;100.00
38253;BME280;24785;52.372;20.672;2023-02-13T04:42:01;102368.22;;;4.03;100.00
38253;BME280;24785;52.372;20.672;2023-02-13T04:52:02;102380.75;;;4.09;100.00
38253;BME280;24785;52.372;20.672;2023-02-13T05:02:03;102382.13;;;4.05;100.00
38253;BME280;24785;52.372;20.672;2023-02-13T05:12:04;102376.19;;;4.03;100.00
38253;BME280;24785;52.372;20.672;2023-02-13T05:22:04;102373.06;;;4.00;100.00
38253;BME280;24785;52.372;20.672;2023-02-13T05:32:24;102358.81;;;4.01;100.00
38253;BME280;24785;52.372;20.672;2023-02-13T05:42:25;102372.78;;;3.95;100.00
38253;BME280;24785;52.372;20.672;2023-02-13T05:52:25;102389.63;;;4.02;100.00
38253;BME280;24785;52.372;20.672;2023-02-13T06:02:26;102393.09;;;4.02;100.00
38253;BME280;24785;52.372;20.672;2023-02-13T06:12:27;102384.41;;;4.08;100.00
38253;BME280;24785;52.372;20.672;2023-02-13T06:22:28;102392.84;;;4.12;100.00
38253;BME280;24785;52.372;20.672;2023-02-13T06:32:28;102397.31;;;4.11;100.00
38253;BME280;24785;52.372;20.672;2023-02-13T06:42:29;102402.97;;;4.23;100.00
38253;BME280;24785;52.372;20.672;2023-02-13T06:52:30;102417.53;;;4.13;100.00
38253;BME280;24785;52.372;20.672;2023-02-13T07:02:32;102396.84;;;4.08;100.00
38253;BME280;24785;52.372;20.672;2023-02-13T07:12:33;102396.84;;;4.08;100.00
38253;BME280;24785;52.372;20.672;2023-02-13T07:22:34;102404.81;;;4.08;100.00
38253;BME280;24785;52.372;20.672;2023-02-13T07:32:35;102398.69;;;4.07;100.00
38253;BME280;24785;52.372;20.672;2023-02-13T07:42:35;102403.81;;;4.09;100.00
38253;BME280;24785;52.372;20.672;2023-02-13T07:52:36;102397.03;;;4.21;100.00
38253;BME280;24785;52.372;20.672;2023-02-13T08:02:38;102390.63;;;4.45;100.00
38253;BME280;24785;52.372;20.672;2023-02-13T08:12:39;102389.72;;;4.53;100.00
38253;BME280;24785;52.372;20.672;2023-02-13T08:22:40;102388.91;;;4.37;100.00
38253;BME280;24785;52.372;20.672;2023-02-13T08:32:42;102389.38;;;4.41;100.00
38253;BME280;24785;52.372;20.672;2023-02-13T08:42:42;102392.84;;;4.41;100.00
38253;BME280;24785;52.372;20.672;2023-02-13T08:52:43;102387.41;;;4.50;100.00
38253;BME280;24785;52.372;20.672;2023-02-13T09:02:44;102382.94;;;4.50;100.00
38253;BME280;24785;52.372;20.672;2023-02-13T09:12:51;102382.38;;;4.55;100.00
38253;BME280;24785;52.372;20.672;2023-02-13T09:22:53;102373.50;;;4.48;100.00
38253;BME280;24785;52.372;20.672;2023-02-13T09:32:55;102362.72;;;4.34;100.00
38253;BME280;24785;52.372;20.672;2023-02-13T09:43:26;102372.56;;;4.55;100.00
38253;BME280;24785;52.372;20.672;2023-02-13T09:53:29;102365.69;;;4.76;100.00
38253;BME280;24785;52.372;20.672;2023-02-13T10:03:38;102372.84;;;4.60;100.00
38253;BME280;24785;52.372;20.672;2023-02-13T10:13:56;102373.13;;;4.51;100.00
38253;BME280;24785;52.372;20.672;2023-02-13T10:24:16;102378.44;;;4.51;100.00
38253;BME280;24785;52.372;20.672;2023-02-13T10:34:24;102364.88;;;4.60;100.00
38253;BME280;24785;52.372;20.672;2023-02-13T11:05:17;102334.25;;;4.79;100.00
38253;BME280;24785;52.372;20.672;2023-02-13T11:15:27;102335.34;;;4.85;100.00
38253;BME280;24785;52.372;20.672;2023-02-13T11:25:28;102323.94;;;5.12;100.00
38253;BME280;24785;52.372;20.672;2023-02-13T11:35:33;102329.06;;;5.35;100.00
38253;BME280;24785;52.372;20.672;2023-02-13T11:45:34;102314.41;;;5.46;100.00
38253;BME280;24785;52.372;20.672;2023-02-13T11:55:37;102325.03;;;6.02;100.00
38253;BME280;24785;52.372;20.672;2023-02-13T12:05:38;102308.44;;;5.99;100.00
38253;BME280;24785;52.372;20.672;2023-02-13T12:15:40;102286.41;;;5.78;100.00
38253;BME280;24785;52.372;20.672;2023-02-13T12:46:49;102274.66;;;6.00;100.00
38253;BME280;24785;52.372;20.672;2023-02-13T13:28:23;102210.06;;;5.78;100.00
38253;BME280;24785;52.372;20.672;2023-02-13T13:48:50;102211.44;;;5.67;100.00
38253;BME280;24785;52.372;20.672;2023-02-13T13:58:55;102207.94;;;5.67;100.00
38253;BME280;24785;52.372;20.672;2023-02-13T14:09:03;102233.66;;;5.53;100.00
38253;BME280;24785;52.372;20.672;2023-02-13T14:19:05;102211.94;;;5.43;100.00
38253;BME280;24785;52.372;20.672;2023-02-13T14:29:38;102209.69;;;5.47;100.00
38253;BME280;24785;52.372;20.672;2023-02-13T14:50:26;102211.16;;;5.56;100.00
38253;BME280;24785;52.372;20.672;2023-02-13T15:10:53;102189.66;;;5.51;100.00
38253;BME280;24785;52.372;20.672;2023-02-13T15:20:56;102175.53;;;5.44;100.00
38253;BME280;24785;52.372;20.672;2023-02-13T15:31:20;102165.84;;;5.29;100.00
38253;BME280;24785;52.372;20.672;2023-02-13T15:41:28;102162.13;;;5.24;100.00
38253;BME280;24785;52.372;20.672;2023-02-13T15:51:32;102187.06;;;5.23;100.00
38253;BME280;24785;52.372;20.672;2023-02-13T16:01:34;102200.91;;;5.18;100.00
38253;BME280;24785;52.372;20.672;2023-02-13T16:11:39;102183.72;;;5.14;100.00
38253;BME280;24785;52.372;20.672;2023-02-13T16:21:40;102175.06;;;5.05;100.00
38253;BME280;24785;52.372;20.672;2023-02-13T16:31:41;102190.69;;;5.15;100.00
38253;BME280;24785;52.372;20.672;2023-02-13T16:41:42;102204.53;;;5.11;100.00
38253;BME280;24785;52.372;20.672;2023-02-13T16:51:52;102204.75;;;5.09;100.00
38253;BME280;24785;52.372;20.672;2023-02-13T17:12:31;102206.34;;;5.03;99.22
38253;BME280;24785;52.372;20.672;2023-02-13T17:32:37;102191.75;;;4.93;100.00
38253;BME280;24785;52.372;20.672;2023-02-13T17:42:38;102183.72;;;4.86;99.97
38253;BME280;24785;52.372;20.672;2023-02-13T17:52:39;102203.59;;;4.90;98.12
38253;BME280;24785;52.372;20.672;2023-02-13T18:02:41;102217.63;;;4.84;99.47
38253;BME280;24785;52.372;20.672;2023-02-13T18:12:45;102241.94;;;4.81;100.00
38253;BME280;24785;52.372;20.672;2023-02-13T18:22:47;102269.31;;;4.82;100.00
38253;BME280;24785;52.372;20.672;2023-02-13T18:32:54;102252.84;;;4.71;100.00
38253;BME280;24785;52.372;20.672;2023-02-13T18:42:55;102268.34;;;4.68;100.00
38253;BME280;24785;52.372;20.672;2023-02-13T18:52:56;102243.63;;;4.67;100.00
38253;BME280;24785;52.372;20.672;2023-02-13T19:02:58;102251.97;;;4.64;100.00
38253;BME280;24785;52.372;20.672;2023-02-13T19:13:00;102263.78;;;4.62;99.59
38253;BME280;24785;52.372;20.672;2023-02-13T19:23:01;102264.41;;;4.64;98.19
38253;BME280;24785;52.372;20.672;2023-02-13T19:33:01;102273.78;;;4.60;97.81
38253;BME280;24785;52.372;20.672;2023-02-13T19:43:02;102281.75;;;4.60;97.12
38253;BME280;24785;52.372;20.672;2023-02-13T19:53:04;102285.59;;;4.57;96.65
38253;BME280;24785;52.372;20.672;2023-02-13T20:03:05;102284.06;;;4.48;97.61
38253;BME280;24785;52.372;20.672;2023-02-13T20:13:07;102290.41;;;4.47;98.07
38253;BME280;24785;52.372;20.672;2023-02-13T20:23:08;102284.94;;;4.34;99.58
38253;BME280;24785;52.372;20.672;2023-02-13T20:33:09;102291.72;;;4.36;100.00
38253;BME280;24785;52.372;20.672;2023-02-13T20:43:10;102287.16;;;4.30;100.00
38253;BME280;24785;52.372;20.672;2023-02-13T20:53:11;102289.50;;;4.25;100.00
38253;BME280;24785;52.372;20.672;2023-02-13T21:03:13;102286.03;;;4.25;100.00
38253;BME280;24785;52.372;20.672;2023-02-13T21:13:14;102286.22;;;4.23;100.00
38253;BME280;24785;52.372;20.672;2023-02-13T21:23:15;102274.16;;;4.21;100.00
38253;BME280;24785;52.372;20.672;2023-02-13T21:33:16;102289.44;;;4.19;100.00
38253;BME280;24785;52.372;20.672;2023-02-13T21:43:17;102280.84;;;4.17;100.00
38253;BME280;24785;52.372;20.672;2023-02-13T21:53:18;102272.88;;;4.17;100.00
38253;BME280;24785;52.372;20.672;2023-02-13T22:03:18;102262.25;;;4.17;100.00
38253;BME280;24785;52.372;20.672;2023-02-13T22:13:19;102268.56;;;4.16;100.00
38253;BME280;24785;52.372;20.672;2023-02-13T22:23:20;102271.22;;;4.16;100.00
38253;BME280;24785;52.372;20.672;2023-02-13T22:33:22;102268.94;;;4.13;100.00
38253;BME280;24785;52.372;20.672;2023-02-13T22:43:22;102282.41;;;4.11;100.00
38253;BME280;24785;52.372;20.672;2023-02-13T22:53:23;102279.38;;;4.14;100.00
38253;BME280;24785;52.372;20.672;2023-02-13T23:03:24;102270.97;;;4.10;100.00
38253;BME280;24785;52.372;20.672;2023-02-13T23:13:25;102262.75;;;4.05;100.00
38253;BME280;24785;52.372;20.672;2023-02-13T23:23:26;102264.38;;;4.06;100.00
38253;BME280;24785;52.372;20.672;2023-02-13T23:33:28;102276.19;;;4.04;100.00
38253;BME280;24785;52.372;20.672;2023-02-13T23:43:29;102276.75;;;3.99;100.00
38253;BME280;24785;52.372;20.672;2023-02-13T23:53:29;102266.63;;;3.88;100.00
